createdAt,value
2023-01-29T00:00:33.832Z,101139.53
2023-01-29T00:03:00.401Z,101140.38
2023-01-29T00:05:28.541Z,101136.94
2023-01-29T00:07:56.401Z,101156.88
2023-01-29T00:10:24.424Z,101131.78
2023-01-29T00:12:51.634Z,101142.19
2023-01-29T00:15:18.480Z,101141.34
2023-01-29T00:17:45.118Z,101144.81
2023-01-29T00:20:12.011Z,101129.22
2023-01-29T00:22:38.548Z,101153.47
2023-01-29T00:25:05.446Z,101150.84
2023-01-29T00:27:33.020Z,101155.13
2023-01-29T00:30:09.175Z,101149.94
2023-01-29T00:32:36.124Z,101156.00
2023-01-29T00:35:02.936Z,101155.09
2023-01-29T00:37:29.628Z,101143.03
2023-01-29T00:39:56.543Z,101155.19
2023-01-29T00:42:41.850Z,101147.38
2023-01-29T00:45:11.550Z,101151.72
2023-01-29T00:47:38.039Z,101164.69
2023-01-29T00:50:09.186Z,101149.97
2023-01-29T00:52:40.913Z,101167.25
2023-01-29T00:55:08.449Z,101158.59
2023-01-29T00:57:35.796Z,101163.81
2023-01-29T01:00:03.780Z,101165.56
2023-01-29T01:02:49.349Z,101160.38
2023-01-29T01:05:20.255Z,101160.44
2023-01-29T01:07:48.769Z,101144.84
2023-01-29T01:10:20.855Z,101169.94
2023-01-29T01:12:48.795Z,101156.97
2023-01-29T01:15:15.316Z,101148.28
2023-01-29T01:17:41.819Z,101152.63
2023-01-29T01:20:09.307Z,101160.41
2023-01-29T01:22:35.923Z,101153.50
2023-01-29T01:25:02.422Z,101152.59
2023-01-29T01:27:29.057Z,101166.44
2023-01-29T01:29:55.589Z,101159.50
2023-01-29T01:32:22.418Z,101133.63
2023-01-29T01:34:48.910Z,101145.75
2023-01-29T01:37:15.546Z,101165.72
2023-01-29T01:39:42.014Z,101144.09
2023-01-29T01:42:14.769Z,101130.25
2023-01-29T01:45:04.384Z,101145.78
2023-01-29T01:47:35.840Z,101135.41
2023-01-29T01:50:15.359Z,101118.09
2023-01-29T01:52:45.489Z,101140.56
2023-01-29T01:55:13.880Z,101135.31
2023-01-29T01:57:42.495Z,101119.75
2023-01-29T02:00:12.818Z,101111.06
2023-01-29T02:03:02.337Z,101117.06
2023-01-29T02:05:51.754Z,101111.88
2023-01-29T02:08:44.265Z,101107.50
2023-01-29T02:11:10.726Z,101097.97
2023-01-29T02:13:37.215Z,101119.59
2023-01-29T02:16:03.774Z,101099.69
2023-01-29T02:18:30.203Z,101098.84
2023-01-29T02:21:13.650Z,101086.78
2023-01-29T02:24:12.936Z,101091.97
2023-01-29T02:27:07.026Z,101109.22
2023-01-29T02:29:43.369Z,101108.41
2023-01-29T02:32:22.525Z,101092.03
2023-01-29T02:35:28.570Z,101109.31
2023-01-29T02:38:02.074Z,101089.44
2023-01-29T02:40:39.968Z,101095.50
2023-01-29T02:43:12.458Z,101091.22
2023-01-29T02:45:42.425Z,101083.44
2023-01-29T02:48:11.760Z,101100.78
2023-01-29T02:50:40.529Z,101112.03
2023-01-29T02:53:19.499Z,101107.75
2023-01-29T02:55:53.079Z,101086.13
2023-01-29T02:58:51.919Z,101115.50
2023-01-29T03:01:25.308Z,101103.41
2023-01-29T03:03:54.357Z,101114.69
2023-01-29T03:06:33.657Z,101125.06
2023-01-29T03:09:03.470Z,101117.28
2023-01-29T03:11:35.320Z,101115.56
2023-01-29T03:14:06.965Z,101129.41
2023-01-29T03:16:41.299Z,101136.34
2023-01-29T03:19:18.872Z,101145.00
2023-01-29T03:21:54.987Z,101159.72
2023-01-29T03:24:48.723Z,101139.81
2023-01-29T03:27:35.498Z,101144.97
2023-01-29T03:30:21.065Z,101139.75
2023-01-29T03:32:53.971Z,101123.28
2023-01-29T03:35:33.380Z,101123.28
2023-01-29T03:38:01.154Z,101104.25
2023-01-29T03:40:30.155Z,101112.91
2023-01-29T03:43:10.314Z,101139.75
2023-01-29T03:46:00.494Z,101137.13
2023-01-29T03:48:39.531Z,101139.69
2023-01-29T03:51:21.084Z,101147.53
2023-01-29T03:54:04.864Z,101148.41
2023-01-29T03:56:54.073Z,101147.56
2023-01-29T03:59:32.854Z,101167.44
2023-01-29T04:02:29.981Z,101147.53
2023-01-29T04:05:05.350Z,101142.31
2023-01-29T04:07:36.582Z,101123.25
2023-01-29T04:10:09.391Z,101115.44
2023-01-29T04:12:49.580Z,101123.22
2023-01-29T04:15:17.415Z,101118.91
2023-01-29T04:17:50.946Z,101128.44
2023-01-29T04:20:27.959Z,101132.75
2023-01-29T04:22:54.670Z,101130.19
2023-01-29T04:25:28.972Z,101125.88
2023-01-29T04:28:25.881Z,101148.38
2023-01-29T04:31:12.168Z,101118.97
2023-01-29T04:33:46.930Z,101131.94
2023-01-29T04:36:32.976Z,101103.38
2023-01-29T04:39:22.936Z,101109.38
2023-01-29T04:42:07.389Z,101095.47
2023-01-29T04:44:42.417Z,101072.97
2023-01-29T04:47:22.405Z,101083.34
2023-01-29T04:49:54.277Z,101070.41
2023-01-29T04:52:24.392Z,101112.84
2023-01-29T04:55:22.632Z,101081.66
2023-01-29T04:58:08.308Z,101072.16
2023-01-29T05:00:39.203Z,101087.78
2023-01-29T05:03:06.128Z,101078.28
2023-01-29T05:05:32.874Z,101079.13
2023-01-29T05:07:59.546Z,101097.28
2023-01-29T05:10:26.244Z,101087.75
2023-01-29T05:12:58.658Z,101105.94
2023-01-29T05:15:31.779Z,101097.28
2023-01-29T05:18:01.808Z,101120.66
2023-01-29T05:20:32.250Z,101126.72
2023-01-29T05:22:59.048Z,101137.13
2023-01-29T05:25:29.237Z,101139.75
2023-01-29T05:28:11.783Z,101141.47
2023-01-29T05:30:39.127Z,101120.72
2023-01-29T05:33:12.788Z,101110.28
2023-01-29T05:35:39.326Z,101112.03
2023-01-29T05:38:05.851Z,101112.00
2023-01-29T05:40:32.850Z,101091.22
2023-01-29T05:42:59.323Z,101100.72
2023-01-29T05:45:26.157Z,101087.75
2023-01-29T05:47:58.414Z,101100.72
2023-01-29T05:50:25.881Z,101086.84
2023-01-29T05:53:00.204Z,101098.09
2023-01-29T05:55:29.387Z,101096.41
2023-01-29T05:57:56.128Z,101121.53
2023-01-29T06:00:22.914Z,101114.59
2023-01-29T06:02:49.965Z,101121.50
2023-01-29T06:05:16.585Z,101114.56
2023-01-29T06:07:45.238Z,101117.16
2023-01-29T06:10:14.871Z,101103.31
2023-01-29T06:12:43.005Z,101119.78
2023-01-29T06:15:10.234Z,101105.94
2023-01-29T06:17:36.764Z,101106.84
2023-01-29T06:20:04.197Z,101116.34
2023-01-29T06:22:30.756Z,101114.63
2023-01-29T06:24:57.240Z,101093.88
2023-01-29T06:27:23.681Z,101103.44
2023-01-29T06:29:50.503Z,101095.63
2023-01-29T06:32:16.960Z,101108.59
2023-01-29T06:34:43.499Z,101106.03
2023-01-29T06:37:10.034Z,101105.16
2023-01-29T06:39:36.528Z,101098.25
2023-01-29T06:42:03.265Z,101114.72
2023-01-29T06:44:29.741Z,101098.28
2023-01-29T06:46:56.232Z,101108.66
2023-01-29T06:49:23.135Z,101118.16
2023-01-29T06:51:49.629Z,101098.25
2023-01-29T06:54:16.089Z,101095.63
2023-01-29T06:56:42.706Z,101100.84
2023-01-29T06:59:09.179Z,101087.00
2023-01-29T07:01:41.062Z,101111.22
2023-01-29T07:04:07.625Z,101112.13
2023-01-29T07:06:34.277Z,101116.44
2023-01-29T07:09:00.803Z,101096.56
2023-01-29T07:11:27.267Z,101116.44
2023-01-29T07:13:53.726Z,101095.72
2023-01-29T07:16:20.236Z,101094.84
2023-01-29T07:18:46.800Z,101097.47
2023-01-29T07:21:13.356Z,101112.16
2023-01-29T07:23:39.862Z,101111.28
2023-01-29T07:26:07.095Z,101113.88
2023-01-29T07:28:40.223Z,101119.09
2023-01-29T07:31:07.579Z,101129.47
2023-01-29T07:33:34.659Z,101131.22
2023-01-29T07:36:01.153Z,101146.75
2023-01-29T07:38:27.833Z,101158.88
2023-01-29T07:40:54.244Z,101155.41
2023-01-29T07:43:21.077Z,101152.78
2023-01-29T07:45:47.535Z,101164.06
2023-01-29T07:48:14.060Z,101154.50
2023-01-29T07:50:40.896Z,101160.56
2023-01-29T07:53:07.536Z,101152.75
2023-01-29T07:55:33.976Z,101150.16
2023-01-29T07:58:03.584Z,101157.06
2023-01-29T08:00:31.232Z,101149.25
2023-01-29T08:03:05.702Z,101144.94
2023-01-29T08:05:32.424Z,101151.00
2023-01-29T08:08:06.635Z,101156.19
2023-01-29T08:10:34.815Z,101156.16
2023-01-29T08:13:02.115Z,101152.66
2023-01-29T08:15:28.717Z,101148.31
2023-01-29T08:20:41.572Z,101145.69
2023-01-29T08:23:13.815Z,101146.50
2023-01-29T08:25:40.493Z,101146.53
2023-01-29T08:28:07.182Z,101147.47
2023-01-29T08:30:34.688Z,101155.25
2023-01-29T08:33:01.616Z,101163.06
2023-01-29T08:35:28.350Z,101165.63
2023-01-29T08:37:59.693Z,101182.16
2023-01-29T08:40:27.546Z,101183.06
2023-01-29T08:43:02.520Z,101166.53
2023-01-29T08:45:30.859Z,101143.97
2023-01-29T08:47:57.294Z,101137.00
2023-01-29T08:50:23.854Z,101126.63
2023-01-29T08:52:50.388Z,101111.84
2023-01-29T08:55:17.171Z,101118.78
2023-01-29T08:57:43.720Z,101125.75
2023-01-29T09:00:10.749Z,101127.50
2023-01-29T09:02:37.600Z,101137.91
2023-01-29T09:05:04.328Z,101144.81
2023-01-29T09:07:31.121Z,101138.69
2023-01-29T09:09:57.590Z,101132.59
2023-01-29T09:12:23.980Z,101148.16
2023-01-29T09:14:50.441Z,101137.72
2023-01-29T09:17:16.850Z,101139.41
2023-01-29T09:19:43.457Z,101139.34
2023-01-29T09:22:11.814Z,101141.06
2023-01-29T09:24:38.439Z,101150.66
2023-01-29T09:27:05.987Z,101162.78
2023-01-29T09:29:35.429Z,101175.78
2023-01-29T09:32:03.561Z,101179.22
2023-01-29T09:34:30.073Z,101180.06
2023-01-29T09:36:56.812Z,101186.13
2023-01-29T09:39:23.326Z,101188.75
2023-01-29T09:42:22.693Z,101191.34
2023-01-29T09:45:10.543Z,101193.94
2023-01-29T09:47:37.164Z,101199.13
2023-01-29T09:50:23.668Z,101214.81
2023-01-29T09:53:04.618Z,101202.63
2023-01-29T09:55:36.244Z,101207.84
2023-01-29T09:58:06.616Z,101205.25
2023-01-29T10:00:34.324Z,101199.16
2023-01-29T10:03:15.768Z,101191.34
2023-01-29T10:06:00.180Z,101183.63
2023-01-29T10:08:33.252Z,101184.50
2023-01-29T10:11:01.809Z,101194.91
2023-01-29T10:13:52.705Z,101186.13
2023-01-29T10:16:19.083Z,101185.22
2023-01-29T10:19:04.636Z,101182.66
2023-01-29T10:21:55.624Z,101178.31
2023-01-29T10:24:38.627Z,101176.63
2023-01-29T10:27:18.505Z,101165.28
2023-01-29T10:29:47.276Z,101168.78
2023-01-29T10:32:16.679Z,101156.59
2023-01-29T10:34:49.500Z,101147.88
2023-01-29T10:37:24.176Z,101149.53
2023-01-29T10:39:50.749Z,101133.00
2023-01-29T10:42:19.597Z,101137.28
2023-01-29T10:45:00.921Z,101129.41
2023-01-29T10:48:04.294Z,101125.03
2023-01-29T10:51:06.396Z,101129.31
2023-01-29T10:53:39.687Z,101120.66
2023-01-29T10:56:51.446Z,101104.28
2023-01-29T10:59:42.765Z,101107.84
2023-01-29T11:02:16.164Z,101098.38
2023-01-29T11:04:42.626Z,101094.88
2023-01-29T11:07:09.494Z,101100.00
2023-01-29T11:09:42.542Z,101094.81
2023-01-29T11:12:14.313Z,101104.28
2023-01-29T11:15:05.495Z,101092.09
2023-01-29T11:17:32.189Z,101071.28
2023-01-29T11:19:58.648Z,101073.78
2023-01-29T11:22:26.949Z,101068.50
2023-01-29T11:25:21.774Z,101051.97
2023-01-29T11:28:00.878Z,101053.69
2023-01-29T11:30:38.794Z,101051.03
2023-01-29T11:33:05.175Z,101048.34
2023-01-29T11:35:33.197Z,101037.88
2023-01-29T11:38:28.574Z,101031.72
2023-01-29T11:41:22.223Z,101034.44
2023-01-29T11:43:48.630Z,101026.72
2023-01-29T11:46:15.948Z,101029.34
2023-01-29T11:48:50.026Z,101032.78
2023-01-29T11:51:25.962Z,101025.88
2023-01-29T11:53:57.171Z,101020.72
2023-01-29T11:56:28.583Z,101027.59
2023-01-29T11:58:56.029Z,101011.00
2023-01-29T12:01:42.785Z,101008.34
2023-01-29T12:04:25.458Z,101001.41
2023-01-29T12:06:54.016Z,100991.00
2023-01-29T12:09:28.016Z,100985.94
2023-01-29T12:11:54.776Z,100994.59
2023-01-29T12:14:26.913Z,100994.63
2023-01-29T12:17:07.095Z,100993.81
2023-01-29T12:19:42.794Z,100992.13
2023-01-29T12:22:43.072Z,100995.66
2023-01-29T12:25:23.770Z,100992.22
2023-01-29T12:27:58.008Z,100982.69
2023-01-29T12:30:38.792Z,100978.19
2023-01-29T12:33:14.329Z,100975.41
2023-01-29T12:35:59.709Z,100974.34
2023-01-29T12:38:26.765Z,100970.94
2023-01-29T12:40:55.189Z,100963.19
2023-01-29T12:43:30.995Z,100957.16
2023-01-29T12:45:59.316Z,100960.63
2023-01-29T12:48:34.405Z,100955.41
2023-01-29T12:51:10.652Z,100958.00
2023-01-29T12:53:38.324Z,100951.97
2023-01-29T12:56:38.987Z,100948.44
2023-01-29T12:59:15.798Z,100939.78
2023-01-29T13:01:53.822Z,100938.91
2023-01-29T13:04:35.873Z,100931.88
2023-01-29T13:07:18.850Z,100938.72
2023-01-29T13:09:50.624Z,100930.84
2023-01-29T13:12:18.338Z,100919.44
2023-01-29T13:14:52.849Z,100919.34
2023-01-29T13:17:56.354Z,100921.81
2023-01-29T13:20:30.604Z,100915.78
2023-01-29T13:23:01.695Z,100915.75
2023-01-29T13:25:28.084Z,100918.41
2023-01-29T13:27:55.253Z,100914.00
2023-01-29T13:30:28.850Z,100918.34
2023-01-29T13:33:08.332Z,100916.69
2023-01-29T13:35:37.926Z,100909.78
2023-01-29T13:38:05.267Z,100903.81
2023-01-29T13:40:34.430Z,100894.44
2023-01-29T13:43:01.636Z,100890.09
2023-01-29T13:45:36.108Z,100885.00
2023-01-29T13:48:31.896Z,100880.81
2023-01-29T13:51:03.380Z,100878.34
2023-01-29T13:53:41.615Z,100885.41
2023-01-29T13:56:31.202Z,100887.25
2023-01-29T13:58:58.840Z,100889.00
2023-01-29T14:02:02.592Z,100889.81
2023-01-29T14:04:31.416Z,100887.22
2023-01-29T14:06:59.151Z,100891.47
2023-01-29T14:09:35.384Z,100889.66
2023-01-29T14:12:02.318Z,100888.72
2023-01-29T14:14:47.530Z,100882.56
2023-01-29T14:17:15.375Z,100870.38
2023-01-29T14:19:52.597Z,100876.34
2023-01-29T14:22:22.043Z,100864.09
2023-01-29T14:24:49.593Z,100850.16
2023-01-29T14:27:25.445Z,100854.44
2023-01-29T14:29:57.474Z,100854.50
2023-01-29T14:32:26.053Z,100841.41
2023-01-29T14:34:55.390Z,100849.09
2023-01-29T14:37:38.764Z,100853.41
2023-01-29T14:40:10.892Z,100846.50
2023-01-29T14:42:57.213Z,100853.59
2023-01-29T14:45:38.297Z,100846.72
2023-01-29T14:48:10.620Z,100854.56
2023-01-29T14:50:36.941Z,100851.94
2023-01-29T14:53:27.928Z,100851.03
2023-01-29T14:55:58.247Z,100861.34
2023-01-29T14:58:30.735Z,100856.13
2023-01-29T15:00:58.365Z,100850.97
2023-01-29T15:03:35.214Z,100852.72
2023-01-29T15:06:02.359Z,100842.25
2023-01-29T15:08:43.868Z,100847.38
2023-01-29T15:11:35.733Z,100843.84
2023-01-29T15:14:23.796Z,100836.75
2023-01-29T15:17:00.973Z,100845.38
2023-01-29T15:19:44.497Z,100849.88
2023-01-29T15:22:12.562Z,100839.63
2023-01-29T15:24:40.472Z,100839.69
2023-01-29T15:27:11.573Z,100842.31
2023-01-29T15:29:38.379Z,100835.31
2023-01-29T15:32:05.837Z,100830.00
2023-01-29T15:34:32.496Z,100825.63
2023-01-29T15:36:59.583Z,100822.16
2023-01-29T15:39:27.688Z,100824.09
2023-01-29T15:42:23.421Z,100831.13
2023-01-29T15:44:49.936Z,100814.75
2023-01-29T15:47:16.422Z,100812.91
2023-01-29T15:49:45.792Z,100806.88
2023-01-29T15:52:35.096Z,100801.72
2023-01-29T15:55:04.427Z,100800.00
2023-01-29T15:57:34.213Z,100802.59
2023-01-29T16:00:01.578Z,100800.06
2023-01-29T16:02:39.559Z,100800.94
2023-01-29T16:05:11.518Z,100799.25
2023-01-29T16:07:38.103Z,100790.63
2023-01-29T16:10:05.428Z,100782.97
2023-01-29T16:12:33.191Z,100788.31
2023-01-29T16:15:01.325Z,100780.59
2023-01-29T16:17:35.464Z,100778.09
2023-01-29T16:20:05.941Z,100780.69
2023-01-29T16:22:34.897Z,100773.00
2023-01-29T16:25:03.897Z,100779.19
2023-01-29T16:27:31.356Z,100780.16
2023-01-29T16:29:57.892Z,100772.44
2023-01-29T16:32:24.542Z,100776.81
2023-01-29T16:34:56.508Z,100769.13
2023-01-29T16:37:32.126Z,100780.34
2023-01-29T16:39:58.873Z,100772.59
2023-01-29T16:42:28.415Z,100778.69
2023-01-29T16:45:01.737Z,100773.50
2023-01-29T16:47:43.326Z,100778.81
2023-01-29T16:50:27.564Z,100772.00
2023-01-29T16:53:18.360Z,100771.22
2023-01-29T16:55:46.857Z,100782.53
2023-01-29T16:58:16.820Z,100788.63
2023-01-29T17:00:45.517Z,100793.03
2023-01-29T17:03:13.388Z,100793.97
2023-01-29T17:05:39.952Z,100798.31
2023-01-29T17:08:07.328Z,100799.19
2023-01-29T17:10:34.047Z,100806.19
2023-01-29T17:13:06.269Z,100801.84
2023-01-29T17:15:44.911Z,100801.00
2023-01-29T17:18:18.545Z,100806.25
2023-01-29T17:20:45.021Z,100814.06
2023-01-29T17:23:11.470Z,100803.75
2023-01-29T17:25:38.370Z,100808.94
2023-01-29T17:28:04.979Z,100805.47
2023-01-29T17:30:37.383Z,100808.06
2023-01-29T17:33:15.512Z,100812.38
2023-01-29T17:35:43.509Z,100810.66
2023-01-29T17:38:24.261Z,100801.06
2023-01-29T17:41:22.342Z,100804.50
2023-01-29T17:43:48.799Z,100796.66
2023-01-29T17:46:17.577Z,100807.84
2023-01-29T17:48:44.582Z,100811.28
2023-01-29T17:51:14.306Z,100808.69
2023-01-29T17:53:45.963Z,100800.00
2023-01-29T17:56:15.825Z,100804.31
2023-01-29T17:58:42.580Z,100801.69
2023-01-29T18:01:09.011Z,100803.41
2023-01-29T18:03:35.558Z,100800.81
2023-01-29T18:06:02.012Z,100812.03
2023-01-29T18:08:31.043Z,100810.31
2023-01-29T18:10:57.480Z,100807.69
2023-01-29T18:13:24.074Z,100809.38
2023-01-29T18:15:51.620Z,100802.47
2023-01-29T18:18:22.749Z,100807.72
2023-01-29T18:20:49.600Z,100806.00
2023-01-29T18:23:16.462Z,100804.22
2023-01-29T18:25:45.795Z,100805.06
2023-01-29T18:28:17.152Z,100818.03
2023-01-29T18:30:46.794Z,100818.03
2023-01-29T18:33:14.080Z,100811.13
2023-01-29T18:35:40.645Z,100807.66
2023-01-29T18:38:07.446Z,100805.06
2023-01-29T18:40:34.210Z,100811.16
2023-01-29T18:43:00.910Z,100798.16
2023-01-29T18:45:28.225Z,100792.13
2023-01-29T18:47:55.021Z,100799.00
2023-01-29T18:50:23.634Z,100799.88
2023-01-29T18:52:50.186Z,100787.81
2023-01-29T18:55:17.142Z,100798.16
2023-01-29T18:58:33.445Z,100791.22
2023-01-29T19:00:31.058Z,100790.38
2023-01-29T19:02:57.511Z,100782.59
2023-01-29T19:05:25.480Z,100784.31
2023-01-29T19:07:52.379Z,100793.00
2023-01-29T19:10:19.085Z,100787.81
2023-01-29T19:12:45.584Z,100794.72
2023-01-29T19:15:12.141Z,100780.84
2023-01-29T19:17:39.157Z,100788.63
2023-01-29T19:20:06.079Z,100782.59
2023-01-29T19:22:32.543Z,100781.69
2023-01-29T19:24:59.075Z,100781.69
2023-01-29T19:27:30.054Z,100780.84
2023-01-29T19:29:58.028Z,100782.63
2023-01-29T19:32:24.488Z,100780.94
2023-01-29T19:34:51.099Z,100781.81
2023-01-29T19:37:17.516Z,100770.56
2023-01-29T19:39:43.980Z,100765.34
2023-01-29T19:42:10.471Z,100766.22
2023-01-29T19:44:38.893Z,100767.13
2023-01-29T19:47:05.932Z,100762.81
2023-01-29T19:49:34.017Z,100765.41
2023-01-29T19:52:01.299Z,100755.03
2023-01-29T19:54:29.387Z,100772.34
2023-01-29T19:56:56.262Z,100765.47
2023-01-29T19:59:22.785Z,100757.69
2023-01-29T20:01:49.324Z,100762.03
2023-01-29T20:04:15.819Z,100749.91
2023-01-29T20:06:42.259Z,100756.88
2023-01-29T20:09:08.673Z,100754.28
2023-01-29T20:11:35.107Z,100756.03
2023-01-29T20:14:01.648Z,100773.38
2023-01-29T20:16:28.226Z,100763.84
2023-01-29T20:18:54.766Z,100766.47
2023-01-29T20:21:41.788Z,100765.59
2023-01-29T20:24:12.353Z,100779.44
2023-01-29T20:26:38.972Z,100782.91
2023-01-29T20:29:06.302Z,100782.91
2023-01-29T20:31:32.823Z,100781.22
2023-01-29T20:33:59.340Z,100781.22
2023-01-29T20:36:25.838Z,100777.75
2023-01-29T20:38:52.263Z,100772.56
2023-01-29T20:41:19.769Z,100773.44
2023-01-29T20:43:46.993Z,100775.19
2023-01-29T20:46:14.016Z,100779.56
2023-01-29T20:48:41.986Z,100775.25
2023-01-29T20:51:13.624Z,100777.84
2023-01-29T20:53:41.088Z,100770.88
2023-01-29T20:56:08.055Z,100759.63
2023-01-29T20:58:34.844Z,100763.94
2023-01-29T21:01:01.358Z,100749.25
2023-01-29T21:03:27.875Z,100743.16
2023-01-29T21:05:54.416Z,100739.75
2023-01-29T21:08:20.948Z,100728.53
2023-01-29T21:10:49.478Z,100724.19
2023-01-29T21:13:16.030Z,100741.50
2023-01-29T21:15:42.885Z,100735.44
2023-01-29T21:18:09.435Z,100727.63
2023-01-29T21:20:36.300Z,100712.06
2023-01-29T21:23:05.327Z,100701.69
2023-01-29T21:25:33.438Z,100693.91
2023-01-29T21:27:59.943Z,100697.31
2023-01-29T21:30:27.090Z,100693.91
2023-01-29T21:32:53.599Z,100706.84
2023-01-29T21:35:20.138Z,100693.06
2023-01-29T21:37:46.597Z,100700.75
2023-01-29T21:40:13.151Z,100694.66
2023-01-29T21:42:58.240Z,100677.28
2023-01-29T21:45:24.848Z,100682.38
2023-01-29T21:47:51.420Z,100666.66
2023-01-29T21:50:18.297Z,100655.38
2023-01-29T21:52:45.089Z,100658.69
2023-01-29T21:55:11.626Z,100640.47
2023-01-29T21:57:38.176Z,100632.66
2023-01-29T22:00:05.248Z,100618.81
2023-01-29T22:02:32.191Z,100630.03
2023-01-29T22:05:16.486Z,100632.59
2023-01-29T22:07:44.605Z,100620.50
2023-01-29T22:10:12.254Z,100623.94
2023-01-29T22:12:39.368Z,100613.59
2023-01-29T22:15:07.137Z,100615.19
2023-01-29T22:17:33.963Z,100608.19
2023-01-29T22:20:00.780Z,100602.16
2023-01-29T22:22:27.406Z,100616.00
2023-01-29T22:24:55.078Z,100590.09
2023-01-29T22:27:21.586Z,100610.84
2023-01-29T22:29:48.184Z,100602.19
2023-01-29T22:32:14.778Z,100612.56
2023-01-29T22:34:41.332Z,100602.16
2023-01-29T22:37:08.608Z,100596.94
2023-01-29T22:39:35.062Z,100590.00
2023-01-29T22:42:01.626Z,100592.50
2023-01-29T22:44:28.168Z,100589.00
2023-01-29T22:46:54.854Z,100582.81
2023-01-29T22:49:21.317Z,100583.53
2023-01-29T22:51:48.152Z,100574.97
2023-01-29T22:54:15.512Z,100582.56
2023-01-29T22:56:42.089Z,100565.28
2023-01-29T22:59:09.508Z,100565.31
2023-01-29T23:01:35.983Z,100547.91
2023-01-29T23:04:02.449Z,100542.72
2023-01-29T23:06:28.973Z,100540.09
2023-01-29T23:08:55.491Z,100534.03
2023-01-29T23:11:23.523Z,100524.53
2023-01-29T23:13:53.959Z,100527.13
2023-01-29T23:16:23.013Z,100542.63
2023-01-29T23:18:51.898Z,100540.03
2023-01-29T23:21:19.294Z,100534.78
2023-01-29T23:23:45.777Z,100541.66
2023-01-29T23:26:31.251Z,100529.41
2023-01-29T23:28:57.959Z,100526.81
2023-01-29T23:31:24.589Z,100514.59
2023-01-29T23:33:51.221Z,100491.22
2023-01-29T23:36:17.861Z,100503.25
2023-01-29T23:38:44.401Z,100511.84
2023-01-29T23:41:10.901Z,100503.25
2023-01-29T23:43:37.743Z,100524.72
2023-01-29T23:46:04.240Z,100509.25
2023-01-29T23:48:30.799Z,100509.25
2023-01-29T23:50:57.234Z,100524.75
2023-01-29T23:53:23.770Z,100522.25
2023-01-29T23:56:01.655Z,100524.88
2023-01-29T23:58:30.890Z,100523.97
